sensor_id;sensor_type;location;lat;lon;timestamp;pressure;altitude;pressure_sealevel;temperature;humidity
17873;BME280;36318;42.620;23.338;2023-01-26T00:01:46;93330.31;;;-1.13;100.00
17873;BME280;36318;42.620;23.338;2023-01-26T00:04:13;93322.09;;;-1.22;100.00
17873;BME280;36318;42.620;23.338;2023-01-26T00:06:40;93320.13;;;-1.13;100.00
17873;BME280;36318;42.620;23.338;2023-01-26T00:09:09;93320.03;;;-1.37;100.00
17873;BME280;36318;42.620;23.338;2023-01-26T00:11:38;93323.19;;;-1.29;100.00
17873;BME280;36318;42.620;23.338;2023-01-26T00:14:05;93330.81;;;-1.29;100.00
17873;BME280;36318;42.620;23.338;2023-01-26T00:16:32;93330.91;;;-1.32;100.00
17873;BME280;36318;42.620;23.338;2023-01-26T00:18:58;93332.50;;;-1.28;100.00
17873;BME280;36318;42.620;23.338;2023-01-26T00:21:26;93322.88;;;-1.19;100.00
17873;BME280;36318;42.620;23.338;2023-01-26T00:23:52;93328.16;;;-1.26;100.00
17873;BME280;36318;42.620;23.338;2023-01-26T00:26:20;93327.88;;;-1.16;100.00
17873;BME280;36318;42.620;23.338;2023-01-26T00:28:48;93319.94;;;-1.34;100.00
17873;BME280;36318;42.620;23.338;2023-01-26T00:31:15;93318.50;;;-1.41;100.00
17873;BME280;36318;42.620;23.338;2023-01-26T00:33:42;93306.66;;;-1.43;100.00
17873;BME280;36318;42.620;23.338;2023-01-26T00:36:09;93299.50;;;-1.31;100.00
17873;BME280;36318;42.620;23.338;2023-01-26T00:38:36;93305.13;;;-1.47;100.00
17873;BME280;36318;42.620;23.338;2023-01-26T00:41:03;93295.28;;;-1.58;100.00
17873;BME280;36318;42.620;23.338;2023-01-26T00:43:29;93292.81;;;-1.61;100.00
17873;BME280;36318;42.620;23.338;2023-01-26T00:45:58;93305.06;;;-1.46;100.00
17873;BME280;36318;42.620;23.338;2023-01-26T00:48:24;93289.56;;;-1.38;100.00
17873;BME280;36318;42.620;23.338;2023-01-26T00:50:51;93295.81;;;-1.48;100.00
17873;BME280;36318;42.620;23.338;2023-01-26T00:53:18;93291.19;;;-1.36;100.00
17873;BME280;36318;42.620;23.338;2023-01-26T00:55:44;93289.44;;;-1.35;100.00
17873;BME280;36318;42.620;23.338;2023-01-26T00:58:11;93282.28;;;-1.49;100.00
17873;BME280;36318;42.620;23.338;2023-01-26T01:00:38;93284.94;;;-1.53;100.00
17873;BME280;36318;42.620;23.338;2023-01-26T01:03:06;93274.50;;;-1.46;100.00
17873;BME280;36318;42.620;23.338;2023-01-26T01:05:32;93270.22;;;-1.44;100.00
17873;BME280;36318;42.620;23.338;2023-01-26T01:07:59;93270.41;;;-1.50;100.00
17873;BME280;36318;42.620;23.338;2023-01-26T01:10:26;93268.91;;;-1.55;100.00
17873;BME280;36318;42.620;23.338;2023-01-26T01:12:52;93272.47;;;-1.61;100.00
17873;BME280;36318;42.620;23.338;2023-01-26T01:15:19;93280.97;;;-1.62;100.00
17873;BME280;36318;42.620;23.338;2023-01-26T01:17:45;93274.88;;;-1.56;100.00
17873;BME280;36318;42.620;23.338;2023-01-26T01:20:13;93270.38;;;-1.74;100.00
17873;BME280;36318;42.620;23.338;2023-01-26T01:22:40;93267.56;;;-1.67;100.00
17873;BME280;36318;42.620;23.338;2023-01-26T01:25:07;93265.94;;;-1.68;100.00
17873;BME280;36318;42.620;23.338;2023-01-26T01:27:34;93262.41;;;-1.64;100.00
17873;BME280;36318;42.620;23.338;2023-01-26T01:30:00;93262.13;;;-1.56;100.00
17873;BME280;36318;42.620;23.338;2023-01-26T01:32:32;93257.56;;;-1.71;100.00
17873;BME280;36318;42.620;23.338;2023-01-26T01:35:00;93265.44;;;-1.79;100.00
17873;BME280;36318;42.620;23.338;2023-01-26T01:37:28;93259.69;;;-1.86;100.00
17873;BME280;36318;42.620;23.338;2023-01-26T01:39:57;93264.53;;;-1.78;100.00
17873;BME280;36318;42.620;23.338;2023-01-26T01:42:24;93258.50;;;-1.75;100.00
17873;BME280;36318;42.620;23.338;2023-01-26T01:47:32;93251.59;;;-1.70;100.00
17873;BME280;36318;42.620;23.338;2023-01-26T01:49:58;93251.03;;;-1.80;100.00
17873;BME280;36318;42.620;23.338;2023-01-26T01:52:29;93260.03;;;-1.70;100.00
17873;BME280;36318;42.620;23.338;2023-01-26T01:54:57;93258.16;;;-1.65;100.00
17873;BME280;36318;42.620;23.338;2023-01-26T01:57:27;93253.72;;;-1.58;100.00
17873;BME280;36318;42.620;23.338;2023-01-26T02:00:10;93250.59;;;-1.66;100.00
17873;BME280;36318;42.620;23.338;2023-01-26T02:02:37;93246.16;;;-1.60;100.00
17873;BME280;36318;42.620;23.338;2023-01-26T02:05:06;93242.72;;;-1.59;100.00
17873;BME280;36318;42.620;23.338;2023-01-26T02:07:38;93253.06;;;-1.63;100.00
17873;BME280;36318;42.620;23.338;2023-01-26T02:10:05;93234.31;;;-1.61;100.00
17873;BME280;36318;42.620;23.338;2023-01-26T02:12:44;93236.63;;;-1.79;100.00
17873;BME280;36318;42.620;23.338;2023-01-26T02:15:12;93228.53;;;-1.66;100.00
17873;BME280;36318;42.620;23.338;2023-01-26T02:17:39;93233.72;;;-1.69;100.00
17873;BME280;36318;42.620;23.338;2023-01-26T02:20:07;93223.94;;;-1.81;100.00
17873;BME280;36318;42.620;23.338;2023-01-26T02:22:40;93216.28;;;-1.81;100.00
17873;BME280;36318;42.620;23.338;2023-01-26T02:25:10;93208.22;;;-1.67;100.00
17873;BME280;36318;42.620;23.338;2023-01-26T02:27:39;93209.31;;;-1.74;100.00
17873;BME280;36318;42.620;23.338;2023-01-26T02:30:07;93197.47;;;-1.75;100.00
17873;BME280;36318;42.620;23.338;2023-01-26T02:32:35;93199.06;;;-1.73;100.00
17873;BME280;36318;42.620;23.338;2023-01-26T02:35:01;93203.56;;;-1.79;100.00
17873;BME280;36318;42.620;23.338;2023-01-26T02:37:28;93198.97;;;-1.70;100.00
17873;BME280;36318;42.620;23.338;2023-01-26T02:39:55;93198.78;;;-1.64;100.00
17873;BME280;36318;42.620;23.338;2023-01-26T02:42:25;93204.56;;;-1.85;100.00
17873;BME280;36318;42.620;23.338;2023-01-26T02:45:04;93187.41;;;-1.78;100.00
17873;BME280;36318;42.620;23.338;2023-01-26T02:47:31;93196.88;;;-1.84;100.00
17873;BME280;36318;42.620;23.338;2023-01-26T02:49:58;93190.19;;;-1.86;100.00
17873;BME280;36318;42.620;23.338;2023-01-26T02:52:25;93181.69;;;-1.85;100.00
17873;BME280;36318;42.620;23.338;2023-01-26T02:54:52;93183.47;;;-1.87;100.00
17873;BME280;36318;42.620;23.338;2023-01-26T02:57:36;93175.75;;;-1.86;100.00
17873;BME280;36318;42.620;23.338;2023-01-26T03:00:05;93169.72;;;-1.82;100.00
17873;BME280;36318;42.620;23.338;2023-01-26T03:02:32;93167.69;;;-1.72;100.00
17873;BME280;36318;42.620;23.338;2023-01-26T03:04:59;93168.47;;;-1.96;100.00
17873;BME280;36318;42.620;23.338;2023-01-26T03:07:26;93170.09;;;-1.94;100.00
17873;BME280;36318;42.620;23.338;2023-01-26T03:09:52;93080.16;;;-2.42;100.00
17873;BME280;36318;42.620;23.338;2023-01-26T03:12:19;93164.75;;;-1.86;100.00
17873;BME280;36318;42.620;23.338;2023-01-26T03:14:45;93159.91;;;-1.92;100.00
17873;BME280;36318;42.620;23.338;2023-01-26T03:17:33;93156.19;;;-1.84;100.00
17873;BME280;36318;42.620;23.338;2023-01-26T03:20:00;93149.56;;;-1.88;100.00
17873;BME280;36318;42.620;23.338;2023-01-26T03:22:44;93143.94;;;-1.97;100.00
17873;BME280;36318;42.620;23.338;2023-01-26T03:25:33;93137.47;;;-1.81;100.00
17873;BME280;36318;42.620;23.338;2023-01-26T03:28:18;93136.66;;;-1.82;100.00
17873;BME280;36318;42.620;23.338;2023-01-26T03:30:46;93142.88;;;-1.90;100.00
17873;BME280;36318;42.620;23.338;2023-01-26T03:33:14;93130.63;;;-1.79;100.00
17873;BME280;36318;42.620;23.338;2023-01-26T03:35:41;93125.47;;;-1.77;100.00
17873;BME280;36318;42.620;23.338;2023-01-26T03:38:08;93132.78;;;-1.93;100.00
17873;BME280;36318;42.620;23.338;2023-01-26T03:40:34;93130.16;;;-1.90;100.00
17873;BME280;36318;42.620;23.338;2023-01-26T03:43:18;93124.28;;;-1.92;100.00
17873;BME280;36318;42.620;23.338;2023-01-26T03:46:02;93130.06;;;-1.87;100.00
17873;BME280;36318;42.620;23.338;2023-01-26T03:48:47;93137.13;;;-1.97;100.00
17873;BME280;36318;42.620;23.338;2023-01-26T03:51:32;93125.84;;;-1.88;100.00
17873;BME280;36318;42.620;23.338;2023-01-26T03:54:15;93129.38;;;-1.92;100.00
17873;BME280;36318;42.620;23.338;2023-01-26T03:56:59;93119.22;;;-1.92;100.00
17873;BME280;36318;42.620;23.338;2023-01-26T03:59:26;93115.00;;;-1.93;100.00
17873;BME280;36318;42.620;23.338;2023-01-26T04:02:03;93117.53;;;-1.93;100.00
17873;BME280;36318;42.620;23.338;2023-01-26T04:04:48;93108.00;;;-1.87;100.00
17873;BME280;36318;42.620;23.338;2023-01-26T04:07:32;93110.84;;;-1.96;100.00
17873;BME280;36318;42.620;23.338;2023-01-26T04:10:16;93107.16;;;-1.87;100.00
17873;BME280;36318;42.620;23.338;2023-01-26T04:12:43;93103.72;;;-1.86;100.00
17873;BME280;36318;42.620;23.338;2023-01-26T04:15:10;93109.94;;;-1.95;100.00
17873;BME280;36318;42.620;23.338;2023-01-26T04:17:54;93098.63;;;-1.86;100.00
17873;BME280;36318;42.620;23.338;2023-01-26T04:20:39;93091.44;;;-1.98;100.00
17873;BME280;36318;42.620;23.338;2023-01-26T04:23:23;93083.59;;;-1.92;100.00
17873;BME280;36318;42.620;23.338;2023-01-26T04:25:50;93075.16;;;-1.93;100.00
17873;BME280;36318;42.620;23.338;2023-01-26T04:28:16;93070.19;;;-1.97;100.00
17873;BME280;36318;42.620;23.338;2023-01-26T04:30:43;93080.59;;;-2.03;100.00
17873;BME280;36318;42.620;23.338;2023-01-26T04:33:10;93076.78;;;-1.92;100.00
17873;BME280;36318;42.620;23.338;2023-01-26T04:35:36;93079.41;;;-1.93;100.00
17873;BME280;36318;42.620;23.338;2023-01-26T04:38:04;93078.06;;;-2.03;100.00
17873;BME280;36318;42.620;23.338;2023-01-26T04:40:31;93076.13;;;-1.97;100.00
17873;BME280;36318;42.620;23.338;2023-01-26T04:42:57;93075.41;;;-2.00;100.00
17873;BME280;36318;42.620;23.338;2023-01-26T04:45:24;93070.94;;;-1.94;100.00
17873;BME280;36318;42.620;23.338;2023-01-26T04:47:50;93074.25;;;-1.92;100.00
17873;BME280;36318;42.620;23.338;2023-01-26T04:50:17;93077.88;;;-1.99;100.00
17873;BME280;36318;42.620;23.338;2023-01-26T04:52:43;93075.75;;;-1.86;100.00
17873;BME280;36318;42.620;23.338;2023-01-26T04:55:12;93074.09;;;-1.87;100.00
17873;BME280;36318;42.620;23.338;2023-01-26T04:57:38;93085.16;;;-1.88;100.00
17873;BME280;36318;42.620;23.338;2023-01-26T05:00:05;93073.38;;;-1.91;100.00
17873;BME280;36318;42.620;23.338;2023-01-26T05:02:34;93091.00;;;-1.86;100.00
17873;BME280;36318;42.620;23.338;2023-01-26T05:05:01;93088.56;;;-1.89;100.00
17873;BME280;36318;42.620;23.338;2023-01-26T05:07:28;93093.66;;;-1.89;100.00
17873;BME280;36318;42.620;23.338;2023-01-26T05:09:54;93090.81;;;-1.80;100.00
17873;BME280;36318;42.620;23.338;2023-01-26T05:12:22;93090.88;;;-1.82;100.00
17873;BME280;36318;42.620;23.338;2023-01-26T05:14:58;93085.63;;;-1.77;100.00
17873;BME280;36318;42.620;23.338;2023-01-26T05:17:25;93086.38;;;-1.75;100.00
17873;BME280;36318;42.620;23.338;2023-01-26T05:19:51;93086.28;;;-1.72;100.00
17873;BME280;36318;42.620;23.338;2023-01-26T05:22:18;93079.31;;;-1.67;100.00
17873;BME280;36318;42.620;23.338;2023-01-26T05:24:44;93081.66;;;-1.61;100.00
17873;BME280;36318;42.620;23.338;2023-01-26T05:27:11;93084.50;;;-1.70;100.00
17873;BME280;36318;42.620;23.338;2023-01-26T05:29:49;93080.81;;;-1.61;100.00
17873;BME280;36318;42.620;23.338;2023-01-26T05:32:15;93074.22;;;-1.67;100.00
17873;BME280;36318;42.620;23.338;2023-01-26T05:34:42;93073.94;;;-1.58;100.00
17873;BME280;36318;42.620;23.338;2023-01-26T05:37:08;93075.59;;;-1.57;100.00
17873;BME280;36318;42.620;23.338;2023-01-26T05:39:35;93072.16;;;-1.56;100.00
17873;BME280;36318;42.620;23.338;2023-01-26T05:42:02;93075.69;;;-1.60;100.00
17873;BME280;36318;42.620;23.338;2023-01-26T05:44:28;93080.69;;;-1.57;100.00
17873;BME280;36318;42.620;23.338;2023-01-26T05:46:57;93077.34;;;-1.59;100.00
17873;BME280;36318;42.620;23.338;2023-01-26T05:49:23;93075.59;;;-1.57;100.00
17873;BME280;36318;42.620;23.338;2023-01-26T05:51:50;93077.97;;;-1.52;100.00
17873;BME280;36318;42.620;23.338;2023-01-26T05:54:16;93081.50;;;-1.56;100.00
17873;BME280;36318;42.620;23.338;2023-01-26T05:56:43;93077.25;;;-1.56;100.00
17873;BME280;36318;42.620;23.338;2023-01-26T05:59:10;93070.50;;;-1.57;100.00
17873;BME280;36318;42.620;23.338;2023-01-26T06:01:36;93071.97;;;-1.51;100.00
17873;BME280;36318;42.620;23.338;2023-01-26T06:04:04;93073.94;;;-1.58;100.00
17873;BME280;36318;42.620;23.338;2023-01-26T06:06:31;93072.25;;;-1.59;100.00
17873;BME280;36318;42.620;23.338;2023-01-26T06:08:58;93074.66;;;-1.54;100.00
17873;BME280;36318;42.620;23.338;2023-01-26T06:11:24;93075.34;;;-1.51;100.00
17873;BME280;36318;42.620;23.338;2023-01-26T06:13:51;93070.53;;;-1.35;100.00
17873;BME280;36318;42.620;23.338;2023-01-26T06:16:17;93063.81;;;-1.36;100.00
17873;BME280;36318;42.620;23.338;2023-01-26T06:18:46;93066.75;;;-1.47;100.00
17873;BME280;36318;42.620;23.338;2023-01-26T06:21:14;93067.59;;;-1.46;100.00
17873;BME280;36318;42.620;23.338;2023-01-26T06:23:40;93062.88;;;-1.34;100.00
17873;BME280;36318;42.620;23.338;2023-01-26T06:26:07;93064.00;;;-1.41;100.00
17873;BME280;36318;42.620;23.338;2023-01-26T06:28:37;93060.88;;;-1.49;100.00
17873;BME280;36318;42.620;23.338;2023-01-26T06:31:05;93056.56;;;-1.47;100.00
17873;BME280;36318;42.620;23.338;2023-01-26T06:33:32;93047.25;;;-1.48;100.00
17873;BME280;36318;42.620;23.338;2023-01-26T06:36:00;93056.47;;;-1.44;100.00
17873;BME280;36318;42.620;23.338;2023-01-26T06:38:28;93053.53;;;-1.33;100.00
17873;BME280;36318;42.620;23.338;2023-01-26T06:40:57;93049.19;;;-1.31;100.00
17873;BME280;36318;42.620;23.338;2023-01-26T06:43:24;93049.31;;;-1.34;100.00
17873;BME280;36318;42.620;23.338;2023-01-26T06:45:51;93048.81;;;-1.21;100.00
17873;BME280;36318;42.620;23.338;2023-01-26T06:48:17;93058.16;;;-1.21;100.00
17873;BME280;36318;42.620;23.338;2023-01-26T06:50:44;93055.69;;;-1.23;100.00
17873;BME280;36318;42.620;23.338;2023-01-26T06:53:23;93055.03;;;-1.28;100.00
17873;BME280;36318;42.620;23.338;2023-01-26T06:55:52;93046.69;;;-1.09;100.00
17873;BME280;36318;42.620;23.338;2023-01-26T06:58:18;93051.03;;;-1.11;100.00
17873;BME280;36318;42.620;23.338;2023-01-26T07:00:45;93050.22;;;-1.13;100.00
17873;BME280;36318;42.620;23.338;2023-01-26T07:03:12;93054.56;;;-1.15;100.00
17873;BME280;36318;42.620;23.338;2023-01-26T07:05:38;93054.13;;;-1.27;100.00
17873;BME280;36318;42.620;23.338;2023-01-26T07:08:05;93048.97;;;-1.25;100.00
17873;BME280;36318;42.620;23.338;2023-01-26T07:10:32;93040.59;;;-1.05;100.00
17873;BME280;36318;42.620;23.338;2023-01-26T07:13:01;93035.44;;;-1.04;100.00
17873;BME280;36318;42.620;23.338;2023-01-26T07:15:28;93041.16;;;-1.21;100.00
17873;BME280;36318;42.620;23.338;2023-01-26T07:17:55;93047.63;;;-1.12;100.00
17873;BME280;36318;42.620;23.338;2023-01-26T07:20:21;93037.16;;;-1.04;100.00
17873;BME280;36318;42.620;23.338;2023-01-26T07:22:48;93032.06;;;-1.04;100.00
17873;BME280;36318;42.620;23.338;2023-01-26T07:25:15;93021.78;;;-1.01;100.00
17873;BME280;36318;42.620;23.338;2023-01-26T07:27:42;93027.09;;;-0.86;100.00
17873;BME280;36318;42.620;23.338;2023-01-26T07:30:11;93030.06;;;-0.96;100.00
17873;BME280;36318;42.620;23.338;2023-01-26T07:32:38;93030.03;;;-0.95;100.00
17873;BME280;36318;42.620;23.338;2023-01-26T07:35:05;93028.38;;;-0.97;100.00
17873;BME280;36318;42.620;23.338;2023-01-26T07:37:31;93016.38;;;-0.94;100.00
17873;BME280;36318;42.620;23.338;2023-01-26T07:39:58;93023.03;;;-0.90;100.00
17873;BME280;36318;42.620;23.338;2023-01-26T07:42:25;93020.38;;;-0.87;100.00
17873;BME280;36318;42.620;23.338;2023-01-26T07:44:54;93029.53;;;-0.83;100.00
17873;BME280;36318;42.620;23.338;2023-01-26T07:47:22;93016.25;;;-0.69;100.00
17873;BME280;36318;42.620;23.338;2023-01-26T07:49:49;93024.84;;;-0.72;100.00
17873;BME280;36318;42.620;23.338;2023-01-26T07:52:15;93014.19;;;-0.59;100.00
17873;BME280;36318;42.620;23.338;2023-01-26T07:54:42;93020.22;;;-0.62;100.00
17873;BME280;36318;42.620;23.338;2023-01-26T07:57:08;93020.63;;;-0.73;100.00
17873;BME280;36318;42.620;23.338;2023-01-26T07:59:35;93023.69;;;-0.85;100.00
17873;BME280;36318;42.620;23.338;2023-01-26T08:02:02;93022.78;;;-0.84;100.00
17873;BME280;36318;42.620;23.338;2023-01-26T08:04:29;93019.31;;;-0.81;100.00
17873;BME280;36318;42.620;23.338;2023-01-26T08:06:56;93021.59;;;-0.75;100.00
17873;BME280;36318;42.620;23.338;2023-01-26T08:09:23;93015.13;;;-0.84;100.00
17873;BME280;36318;42.620;23.338;2023-01-26T08:11:50;93006.25;;;-0.74;100.00
17873;BME280;36318;42.620;23.338;2023-01-26T08:14:17;93009.69;;;-0.75;100.00
17873;BME280;36318;42.620;23.338;2023-01-26T08:16:43;93004.81;;;-0.59;100.00
17873;BME280;36318;42.620;23.338;2023-01-26T08:19:10;92996.31;;;-0.80;100.00
17873;BME280;36318;42.620;23.338;2023-01-26T08:21:38;92996.94;;;-0.75;100.00
17873;BME280;36318;42.620;23.338;2023-01-26T08:24:05;92998.94;;;-0.61;100.00
17873;BME280;36318;42.620;23.338;2023-01-26T08:26:31;92990.16;;;-0.54;100.00
17873;BME280;36318;42.620;23.338;2023-01-26T08:28:58;93003.69;;;-0.52;100.00
17873;BME280;36318;42.620;23.338;2023-01-26T08:31:24;92993.81;;;-0.59;100.00
17873;BME280;36318;42.620;23.338;2023-01-26T08:33:52;92999.72;;;-0.59;100.00
17873;BME280;36318;42.620;23.338;2023-01-26T08:36:19;92984.25;;;-0.54;100.00
17873;BME280;36318;42.620;23.338;2023-01-26T08:38:47;92978.88;;;-0.48;100.00
17873;BME280;36318;42.620;23.338;2023-01-26T08:41:14;92979.19;;;-0.56;100.00
17873;BME280;36318;42.620;23.338;2023-01-26T08:43:41;92982.09;;;-0.43;100.00
17873;BME280;36318;42.620;23.338;2023-01-26T08:46:08;92982.38;;;-0.51;100.00
17873;BME280;36318;42.620;23.338;2023-01-26T08:48:34;92986.81;;;-0.54;100.00
17873;BME280;36318;42.620;23.338;2023-01-26T08:51:02;92986.03;;;-0.36;100.00
17873;BME280;36318;42.620;23.338;2023-01-26T08:53:30;92989.09;;;-0.28;100.00
17873;BME280;36318;42.620;23.338;2023-01-26T08:55:59;92995.69;;;-0.23;100.00
17873;BME280;36318;42.620;23.338;2023-01-26T08:58:26;92989.00;;;-0.25;100.00
17873;BME280;36318;42.620;23.338;2023-01-26T09:00:53;92988.53;;;-0.35;100.00
17873;BME280;36318;42.620;23.338;2023-01-26T09:03:20;92983.06;;;-0.26;100.00
17873;BME280;36318;42.620;23.338;2023-01-26T09:05:46;92987.50;;;-0.31;100.00
17873;BME280;36318;42.620;23.338;2023-01-26T09:08:13;92988.91;;;-0.24;100.00
17873;BME280;36318;42.620;23.338;2023-01-26T09:10:39;92988.53;;;-0.15;100.00
17873;BME280;36318;42.620;23.338;2023-01-26T09:13:09;92981.63;;;-0.13;100.00
17873;BME280;36318;42.620;23.338;2023-01-26T09:15:36;92975.41;;;-0.06;100.00
17873;BME280;36318;42.620;23.338;2023-01-26T09:18:04;92977.97;;;-0.06;100.00
17873;BME280;36318;42.620;23.338;2023-01-26T09:20:31;92969.53;;;-0.08;100.00
17873;BME280;36318;42.620;23.338;2023-01-26T09:22:57;92966.47;;;0.05;100.00
17873;BME280;36318;42.620;23.338;2023-01-26T09:25:24;92968.94;;;0.06;100.00
17873;BME280;36318;42.620;23.338;2023-01-26T09:27:51;92959.94;;;-0.03;100.00
17873;BME280;36318;42.620;23.338;2023-01-26T09:30:19;92953.00;;;0.01;100.00
17873;BME280;36318;42.620;23.338;2023-01-26T09:32:46;92942.53;;;0.07;100.00
17873;BME280;36318;42.620;23.338;2023-01-26T09:35:12;92951.78;;;0.10;100.00
17873;BME280;36318;42.620;23.338;2023-01-26T09:37:39;92949.31;;;-0.12;100.00
17873;BME280;36318;42.620;23.338;2023-01-26T09:40:05;92941.09;;;0.02;100.00
17873;BME280;36318;42.620;23.338;2023-01-26T09:42:42;92945.94;;;-0.13;100.00
17873;BME280;36318;42.620;23.338;2023-01-26T09:45:17;92945.94;;;-0.13;100.00
17873;BME280;36318;42.620;23.338;2023-01-26T09:47:52;92944.94;;;-0.09;100.00
17873;BME280;36318;42.620;23.338;2023-01-26T09:50:21;92942.41;;;0.10;100.00
17873;BME280;36318;42.620;23.338;2023-01-26T09:52:51;92928.91;;;0.08;100.00
17873;BME280;36318;42.620;23.338;2023-01-26T09:55:20;92923.59;;;0.13;100.00
17873;BME280;36318;42.620;23.338;2023-01-26T09:57:49;92930.78;;;0.23;100.00
17873;BME280;36318;42.620;23.338;2023-01-26T10:00:17;92927.88;;;0.31;100.00
17873;BME280;36318;42.620;23.338;2023-01-26T10:02:49;92918.16;;;0.39;100.00
17873;BME280;36318;42.620;23.338;2023-01-26T10:05:21;92933.72;;;0.33;100.00
17873;BME280;36318;42.620;23.338;2023-01-26T10:07:50;92929.06;;;0.24;100.00
17873;BME280;36318;42.620;23.338;2023-01-26T10:10:18;92930.06;;;0.38;100.00
17873;BME280;36318;42.620;23.338;2023-01-26T10:12:45;92925.09;;;0.35;100.00
17873;BME280;36318;42.620;23.338;2023-01-26T10:15:16;92916.22;;;0.44;100.00
17873;BME280;36318;42.620;23.338;2023-01-26T10:17:44;92912.06;;;0.41;100.00
17873;BME280;36318;42.620;23.338;2023-01-26T10:20:17;92906.69;;;0.47;100.00
17873;BME280;36318;42.620;23.338;2023-01-26T10:22:50;92900.91;;;0.44;100.00
17873;BME280;36318;42.620;23.338;2023-01-26T10:25:18;92885.53;;;0.45;100.00
17873;BME280;36318;42.620;23.338;2023-01-26T10:27:45;92870.13;;;0.47;100.00
17873;BME280;36318;42.620;23.338;2023-01-26T10:30:13;92878.53;;;0.49;100.00
17873;BME280;36318;42.620;23.338;2023-01-26T10:32:40;92877.78;;;0.47;100.00
17873;BME280;36318;42.620;23.338;2023-01-26T10:35:08;92865.09;;;0.45;100.00
17873;BME280;36318;42.620;23.338;2023-01-26T10:37:40;92863.84;;;0.35;100.00
17873;BME280;36318;42.620;23.338;2023-01-26T10:40:09;92856.38;;;0.32;100.00
17873;BME280;36318;42.620;23.338;2023-01-26T10:42:36;92848.75;;;0.31;100.00
17873;BME280;36318;42.620;23.338;2023-01-26T10:45:04;92830.69;;;0.35;100.00
17873;BME280;36318;42.620;23.338;2023-01-26T10:47:31;92840.47;;;0.44;100.00
17873;BME280;36318;42.620;23.338;2023-01-26T10:50:12;92831.31;;;0.40;100.00
17873;BME280;36318;42.620;23.338;2023-01-26T10:52:39;92827.44;;;0.50;100.00
17873;BME280;36318;42.620;23.338;2023-01-26T10:55:23;92817.13;;;0.52;100.00
17873;BME280;36318;42.620;23.338;2023-01-26T10:57:49;92814.91;;;0.63;100.00
17873;BME280;36318;42.620;23.338;2023-01-26T11:00:21;92810.53;;;0.65;100.00
17873;BME280;36318;42.620;23.338;2023-01-26T11:02:49;92801.63;;;0.56;100.00
17873;BME280;36318;42.620;23.338;2023-01-26T11:05:20;92797.25;;;0.58;100.00
17873;BME280;36318;42.620;23.338;2023-01-26T11:07:47;92791.34;;;0.75;100.00
17873;BME280;36318;42.620;23.338;2023-01-26T11:10:24;92788.78;;;0.75;100.00
17873;BME280;36318;42.620;23.338;2023-01-26T11:12:51;92781.59;;;0.83;100.00
17873;BME280;36318;42.620;23.338;2023-01-26T11:15:32;92783.38;;;0.81;100.00
17873;BME280;36318;42.620;23.338;2023-01-26T11:18:01;92775.94;;;0.77;100.00
17873;BME280;36318;42.620;23.338;2023-01-26T11:20:42;92786.75;;;0.65;100.00
17873;BME280;36318;42.620;23.338;2023-01-26T11:23:12;92766.34;;;0.65;100.00
17873;BME280;36318;42.620;23.338;2023-01-26T11:25:44;92748.06;;;0.72;100.00
17873;BME280;36318;42.620;23.338;2023-01-26T11:28:20;92748.50;;;0.63;100.00
17873;BME280;36318;42.620;23.338;2023-01-26T11:30:57;92745.59;;;0.71;100.00
17873;BME280;36318;42.620;23.338;2023-01-26T11:33:28;92747.03;;;0.59;100.00
17873;BME280;36318;42.620;23.338;2023-01-26T11:36:00;92756.25;;;0.62;100.00
17873;BME280;36318;42.620;23.338;2023-01-26T11:38:31;92747.16;;;0.56;100.00
17873;BME280;36318;42.620;23.338;2023-01-26T11:41:04;92729.00;;;0.62;100.00
17873;BME280;36318;42.620;23.338;2023-01-26T11:43:42;92732.69;;;0.56;100.00
17873;BME280;36318;42.620;23.338;2023-01-26T11:49:01;92738.38;;;0.62;100.00
17873;BME280;36318;42.620;23.338;2023-01-26T11:51:31;92743.94;;;0.52;100.00
17873;BME280;36318;42.620;23.338;2023-01-26T11:56:50;92724.56;;;0.48;100.00
17873;BME280;36318;42.620;23.338;2023-01-26T11:59:20;92725.69;;;0.43;100.00
17873;BME280;36318;42.620;23.338;2023-01-26T12:01:52;92716.47;;;0.40;100.00
17873;BME280;36318;42.620;23.338;2023-01-26T12:04:22;92717.66;;;0.50;100.00
17873;BME280;36318;42.620;23.338;2023-01-26T12:06:49;92717.28;;;0.58;100.00
17873;BME280;36318;42.620;23.338;2023-01-26T12:09:20;92722.53;;;0.38;100.00
17873;BME280;36318;42.620;23.338;2023-01-26T12:11:53;92718.34;;;0.54;100.00
17873;BME280;36318;42.620;23.338;2023-01-26T12:14:22;92704.81;;;0.52;100.00
17873;BME280;36318;42.620;23.338;2023-01-26T12:16:53;92688.16;;;0.62;100.00
17873;BME280;36318;42.620;23.338;2023-01-26T12:19:28;92696.56;;;0.47;100.00
17873;BME280;36318;42.620;23.338;2023-01-26T12:21:59;92683.94;;;0.61;100.00
17873;BME280;36318;42.620;23.338;2023-01-26T12:24:32;92684.78;;;0.62;100.00
17873;BME280;36318;42.620;23.338;2023-01-26T12:27:01;92671.31;;;0.75;100.00
17873;BME280;36318;42.620;23.338;2023-01-26T12:29:33;92668.97;;;0.71;100.00
17873;BME280;36318;42.620;23.338;2023-01-26T12:32:04;92672.66;;;0.65;100.00
17873;BME280;36318;42.620;23.338;2023-01-26T12:34:33;92674.41;;;0.65;100.00
17873;BME280;36318;42.620;23.338;2023-01-26T12:37:06;92666.91;;;0.62;100.00
17873;BME280;36318;42.620;23.338;2023-01-26T12:39:41;92657.53;;;0.62;100.00
17873;BME280;36318;42.620;23.338;2023-01-26T12:42:16;92661.56;;;0.49;100.00
17873;BME280;36318;42.620;23.338;2023-01-26T12:44:45;92654.97;;;0.62;100.00
17873;BME280;36318;42.620;23.338;2023-01-26T12:47:14;92652.19;;;0.67;100.00
17873;BME280;36318;42.620;23.338;2023-01-26T12:49:45;92666.06;;;0.61;100.00
17873;BME280;36318;42.620;23.338;2023-01-26T12:52:15;92657.59;;;0.43;100.00
17873;BME280;36318;42.620;23.338;2023-01-26T12:54:44;92664.09;;;0.66;100.00
17873;BME280;36318;42.620;23.338;2023-01-26T12:57:13;92660.66;;;0.67;100.00
17873;BME280;36318;42.620;23.338;2023-01-26T12:59:43;92578.25;;;0.14;100.00
17873;BME280;36318;42.620;23.338;2023-01-26T13:02:21;92648.25;;;0.59;100.00